sensor_id;sensor_type;location;lat;lon;timestamp;P1;durP1;ratioP1;P2;durP2;ratioP2
78224;SDS011;67498;53.650;10.090;2024-02-26T00:00:19;11.77;;;5.17;;
78224;SDS011;67498;53.650;10.090;2024-02-26T00:02:44;11.63;;;4.97;;
78224;SDS011;67498;53.650;10.090;2024-02-26T00:05:09;13.87;;;4.77;;
78224;SDS011;67498;53.650;10.090;2024-02-26T00:07:35;12.43;;;4.57;;
78224;SDS011;67498;53.650;10.090;2024-02-26T00:10:00;13.50;;;4.65;;
78224;SDS011;67498;53.650;10.090;2024-02-26T00:12:25;11.00;;;4.90;;
78224;SDS011;67498;53.650;10.090;2024-02-26T00:14:51;12.63;;;4.90;;
78224;SDS011;67498;53.650;10.090;2024-02-26T00:17:17;13.23;;;4.65;;
78224;SDS011;67498;53.650;10.090;2024-02-26T00:19:43;12.70;;;4.40;;
78224;SDS011;67498;53.650;10.090;2024-02-26T00:22:08;10.33;;;3.93;;
78224;SDS011;67498;53.650;10.090;2024-02-26T00:24:33;11.37;;;3.70;;
78224;SDS011;67498;53.650;10.090;2024-02-26T00:26:59;10.87;;;5.30;;
78224;SDS011;67498;53.650;10.090;2024-02-26T00:29:24;11.80;;;4.63;;
78224;SDS011;67498;53.650;10.090;2024-02-26T00:31:50;11.23;;;4.53;;
78224;SDS011;67498;53.650;10.090;2024-02-26T00:34:16;12.93;;;4.50;;
78224;SDS011;67498;53.650;10.090;2024-02-26T00:36:41;9.37;;;4.07;;
78224;SDS011;67498;53.650;10.090;2024-02-26T00:39:06;8.30;;;3.23;;
78224;SDS011;67498;53.650;10.090;2024-02-26T00:41:31;11.77;;;4.40;;
78224;SDS011;67498;53.650;10.090;2024-02-26T00:43:57;8.67;;;3.90;;
78224;SDS011;67498;53.650;10.090;2024-02-26T00:46:22;9.47;;;4.00;;
78224;SDS011;67498;53.650;10.090;2024-02-26T00:48:47;7.73;;;3.80;;
78224;SDS011;67498;53.650;10.090;2024-02-26T00:51:12;9.30;;;3.63;;
78224;SDS011;67498;53.650;10.090;2024-02-26T00:53:38;10.37;;;4.03;;
78224;SDS011;67498;53.650;10.090;2024-02-26T00:56:03;9.73;;;3.20;;
78224;SDS011;67498;53.650;10.090;2024-02-26T00:58:28;9.20;;;3.37;;
78224;SDS011;67498;53.650;10.090;2024-02-26T01:00:54;11.63;;;4.20;;
78224;SDS011;67498;53.650;10.090;2024-02-26T01:03:19;11.30;;;4.07;;
78224;SDS011;67498;53.650;10.090;2024-02-26T01:05:45;7.80;;;3.17;;
78224;SDS011;67498;53.650;10.090;2024-02-26T01:08:10;9.13;;;4.13;;
78224;SDS011;67498;53.650;10.090;2024-02-26T01:10:36;9.00;;;3.97;;
78224;SDS011;67498;53.650;10.090;2024-02-26T01:13:01;10.47;;;3.80;;
78224;SDS011;67498;53.650;10.090;2024-02-26T01:15:27;10.70;;;4.20;;
78224;SDS011;67498;53.650;10.090;2024-02-26T01:17:52;9.70;;;3.73;;
78224;SDS011;67498;53.650;10.090;2024-02-26T01:20:18;10.90;;;3.90;;
78224;SDS011;67498;53.650;10.090;2024-02-26T01:22:43;13.77;;;4.50;;
78224;SDS011;67498;53.650;10.090;2024-02-26T01:25:08;10.02;;;3.65;;
78224;SDS011;67498;53.650;10.090;2024-02-26T01:27:37;12.95;;;4.43;;
78224;SDS011;67498;53.650;10.090;2024-02-26T01:30:03;9.47;;;3.80;;
78224;SDS011;67498;53.650;10.090;2024-02-26T01:32:29;11.43;;;4.32;;
78224;SDS011;67498;53.650;10.090;2024-02-26T01:34:55;12.90;;;4.80;;
78224;SDS011;67498;53.650;10.090;2024-02-26T01:37:20;11.97;;;4.13;;
78224;SDS011;67498;53.650;10.090;2024-02-26T01:39:45;10.90;;;3.73;;
78224;SDS011;67498;53.650;10.090;2024-02-26T01:42:11;8.40;;;3.40;;
78224;SDS011;67498;53.650;10.090;2024-02-26T01:44:36;9.93;;;4.43;;
78224;SDS011;67498;53.650;10.090;2024-02-26T01:47:03;8.43;;;3.93;;
78224;SDS011;67498;53.650;10.090;2024-02-26T01:49:29;12.38;;;4.10;;
78224;SDS011;67498;53.650;10.090;2024-02-26T01:51:55;11.95;;;4.32;;
78224;SDS011;67498;53.650;10.090;2024-02-26T01:54:21;9.50;;;4.23;;
78224;SDS011;67498;53.650;10.090;2024-02-26T01:56:47;9.35;;;3.05;;
78224;SDS011;67498;53.650;10.090;2024-02-26T01:59:13;8.63;;;4.28;;
78224;SDS011;67498;53.650;10.090;2024-02-26T02:01:39;10.13;;;3.53;;
78224;SDS011;67498;53.650;10.090;2024-02-26T02:04:07;9.93;;;3.47;;
78224;SDS011;67498;53.650;10.090;2024-02-26T02:06:32;9.00;;;3.55;;
78224;SDS011;67498;53.650;10.090;2024-02-26T02:08:58;10.60;;;3.60;;
78224;SDS011;67498;53.650;10.090;2024-02-26T02:11:23;9.97;;;3.67;;
78224;SDS011;67498;53.650;10.090;2024-02-26T02:13:49;13.68;;;3.70;;
78224;SDS011;67498;53.650;10.090;2024-02-26T02:16:14;10.43;;;4.00;;
78224;SDS011;67498;53.650;10.090;2024-02-26T02:18:39;9.13;;;3.13;;
78224;SDS011;67498;53.650;10.090;2024-02-26T02:21:05;10.10;;;3.80;;
78224;SDS011;67498;53.650;10.090;2024-02-26T02:23:30;13.30;;;4.00;;
78224;SDS011;67498;53.650;10.090;2024-02-26T02:25:56;7.50;;;3.23;;
78224;SDS011;67498;53.650;10.090;2024-02-26T02:28:23;8.90;;;4.10;;
78224;SDS011;67498;53.650;10.090;2024-02-26T02:30:50;9.63;;;4.00;;
78224;SDS011;67498;53.650;10.090;2024-02-26T02:33:15;9.77;;;3.67;;
78224;SDS011;67498;53.650;10.090;2024-02-26T02:35:41;10.30;;;4.43;;
78224;SDS011;67498;53.650;10.090;2024-02-26T02:38:06;11.45;;;4.30;;
78224;SDS011;67498;53.650;10.090;2024-02-26T02:40:32;10.17;;;3.77;;
78224;SDS011;67498;53.650;10.090;2024-02-26T02:42:57;11.57;;;4.50;;
78224;SDS011;67498;53.650;10.090;2024-02-26T02:45:22;12.10;;;4.07;;
78224;SDS011;67498;53.650;10.090;2024-02-26T02:47:48;9.80;;;3.70;;
78224;SDS011;67498;53.650;10.090;2024-02-26T02:50:13;10.67;;;4.17;;
78224;SDS011;67498;53.650;10.090;2024-02-26T02:52:38;10.73;;;4.07;;
78224;SDS011;67498;53.650;10.090;2024-02-26T02:55:03;13.37;;;4.33;;
78224;SDS011;67498;53.650;10.090;2024-02-26T02:57:29;9.82;;;3.47;;
78224;SDS011;67498;53.650;10.090;2024-02-26T02:59:55;9.37;;;3.67;;
78224;SDS011;67498;53.650;10.090;2024-02-26T03:02:21;9.70;;;3.78;;
78224;SDS011;67498;53.650;10.090;2024-02-26T03:04:46;9.03;;;3.57;;
78224;SDS011;67498;53.650;10.090;2024-02-26T03:07:11;8.93;;;3.73;;
78224;SDS011;67498;53.650;10.090;2024-02-26T03:09:37;8.43;;;3.87;;
78224;SDS011;67498;53.650;10.090;2024-02-26T03:12:02;11.60;;;3.90;;
78224;SDS011;67498;53.650;10.090;2024-02-26T03:14:27;10.27;;;4.60;;
78224;SDS011;67498;53.650;10.090;2024-02-26T03:16:56;10.23;;;3.90;;
78224;SDS011;67498;53.650;10.090;2024-02-26T03:19:21;9.40;;;4.45;;
78224;SDS011;67498;53.650;10.090;2024-02-26T03:21:46;8.30;;;3.27;;
78224;SDS011;67498;53.650;10.090;2024-02-26T03:24:12;8.20;;;3.07;;
78224;SDS011;67498;53.650;10.090;2024-02-26T03:26:37;8.77;;;3.13;;
78224;SDS011;67498;53.650;10.090;2024-02-26T03:29:03;9.67;;;4.33;;
78224;SDS011;67498;53.650;10.090;2024-02-26T03:31:28;10.18;;;4.13;;
78224;SDS011;67498;53.650;10.090;2024-02-26T03:33:54;11.57;;;3.50;;
78224;SDS011;67498;53.650;10.090;2024-02-26T03:36:19;11.50;;;3.70;;
78224;SDS011;67498;53.650;10.090;2024-02-26T03:38:46;8.00;;;2.97;;
78224;SDS011;67498;53.650;10.090;2024-02-26T03:41:11;10.20;;;4.10;;
78224;SDS011;67498;53.650;10.090;2024-02-26T03:43:37;10.30;;;4.07;;
78224;SDS011;67498;53.650;10.090;2024-02-26T03:46:02;8.87;;;3.70;;
78224;SDS011;67498;53.650;10.090;2024-02-26T03:48:28;8.47;;;3.20;;
78224;SDS011;67498;53.650;10.090;2024-02-26T03:50:53;7.50;;;3.45;;
78224;SDS011;67498;53.650;10.090;2024-02-26T03:53:18;13.40;;;4.03;;
78224;SDS011;67498;53.650;10.090;2024-02-26T03:55:43;10.10;;;3.90;;
78224;SDS011;67498;53.650;10.090;2024-02-26T03:58:09;10.93;;;3.77;;
78224;SDS011;67498;53.650;10.090;2024-02-26T04:00:34;10.43;;;4.70;;
78224;SDS011;67498;53.650;10.090;2024-02-26T04:02:59;10.40;;;3.90;;
78224;SDS011;67498;53.650;10.090;2024-02-26T04:05:24;11.00;;;4.67;;
78224;SDS011;67498;53.650;10.090;2024-02-26T04:07:50;9.30;;;3.63;;
78224;SDS011;67498;53.650;10.090;2024-02-26T04:10:15;7.53;;;3.23;;
78224;SDS011;67498;53.650;10.090;2024-02-26T04:12:41;8.55;;;3.25;;
78224;SDS011;67498;53.650;10.090;2024-02-26T04:15:10;10.23;;;3.23;;
78224;SDS011;67498;53.650;10.090;2024-02-26T04:17:36;10.32;;;3.85;;
78224;SDS011;67498;53.650;10.090;2024-02-26T04:20:02;12.73;;;4.40;;
78224;SDS011;67498;53.650;10.090;2024-02-26T04:22:28;10.05;;;3.45;;
78224;SDS011;67498;53.650;10.090;2024-02-26T04:24:53;9.07;;;4.07;;
78224;SDS011;67498;53.650;10.090;2024-02-26T04:27:19;8.27;;;3.47;;
78224;SDS011;67498;53.650;10.090;2024-02-26T04:29:44;9.83;;;3.77;;
78224;SDS011;67498;53.650;10.090;2024-02-26T04:32:09;9.93;;;3.90;;
78224;SDS011;67498;53.650;10.090;2024-02-26T04:34:34;9.70;;;3.70;;
78224;SDS011;67498;53.650;10.090;2024-02-26T04:37:00;9.40;;;3.80;;
78224;SDS011;67498;53.650;10.090;2024-02-26T04:39:25;9.13;;;3.23;;
78224;SDS011;67498;53.650;10.090;2024-02-26T04:41:51;9.98;;;3.75;;
78224;SDS011;67498;53.650;10.090;2024-02-26T04:44:16;8.47;;;3.67;;
78224;SDS011;67498;53.650;10.090;2024-02-26T04:46:41;9.80;;;3.23;;
78224;SDS011;67498;53.650;10.090;2024-02-26T04:49:06;7.13;;;3.17;;
78224;SDS011;67498;53.650;10.090;2024-02-26T04:51:32;9.63;;;3.30;;
78224;SDS011;67498;53.650;10.090;2024-02-26T04:53:57;8.63;;;3.50;;
78224;SDS011;67498;53.650;10.090;2024-02-26T04:56:22;5.80;;;2.63;;
78224;SDS011;67498;53.650;10.090;2024-02-26T04:58:47;8.53;;;3.97;;
78224;SDS011;67498;53.650;10.090;2024-02-26T05:01:13;12.13;;;3.57;;
78224;SDS011;67498;53.650;10.090;2024-02-26T05:03:40;6.68;;;3.17;;
78224;SDS011;67498;53.650;10.090;2024-02-26T05:06:06;6.47;;;2.70;;
78224;SDS011;67498;53.650;10.090;2024-02-26T05:08:31;8.37;;;3.30;;
78224;SDS011;67498;53.650;10.090;2024-02-26T05:10:58;8.88;;;3.33;;
78224;SDS011;67498;53.650;10.090;2024-02-26T05:13:25;9.45;;;3.75;;
78224;SDS011;67498;53.650;10.090;2024-02-26T05:15:50;8.43;;;3.30;;
78224;SDS011;67498;53.650;10.090;2024-02-26T05:18:17;8.70;;;3.28;;
78224;SDS011;67498;53.650;10.090;2024-02-26T05:20:42;7.67;;;3.40;;
78224;SDS011;67498;53.650;10.090;2024-02-26T05:23:08;13.03;;;2.90;;
78224;SDS011;67498;53.650;10.090;2024-02-26T05:25:34;6.88;;;2.75;;
78224;SDS011;67498;53.650;10.090;2024-02-26T05:27:59;9.43;;;3.60;;
78224;SDS011;67498;53.650;10.090;2024-02-26T05:30:25;7.87;;;3.43;;
78224;SDS011;67498;53.650;10.090;2024-02-26T05:32:52;7.65;;;3.05;;
78224;SDS011;67498;53.650;10.090;2024-02-26T05:35:17;8.60;;;2.97;;
78224;SDS011;67498;53.650;10.090;2024-02-26T05:37:42;11.83;;;3.53;;
78224;SDS011;67498;53.650;10.090;2024-02-26T05:40:07;9.17;;;3.20;;
78224;SDS011;67498;53.650;10.090;2024-02-26T05:42:33;9.93;;;3.63;;
78224;SDS011;67498;53.650;10.090;2024-02-26T05:44:59;17.30;;;2.47;;
78224;SDS011;67498;53.650;10.090;2024-02-26T05:47:24;6.13;;;2.20;;
78224;SDS011;67498;53.650;10.090;2024-02-26T05:49:49;6.30;;;2.60;;
78224;SDS011;67498;53.650;10.090;2024-02-26T05:52:14;8.17;;;3.40;;
78224;SDS011;67498;53.650;10.090;2024-02-26T05:54:40;7.80;;;3.50;;
78224;SDS011;67498;53.650;10.090;2024-02-26T05:57:05;8.20;;;3.23;;
78224;SDS011;67498;53.650;10.090;2024-02-26T05:59:30;8.30;;;3.10;;
78224;SDS011;67498;53.650;10.090;2024-02-26T06:01:55;20.10;;;4.23;;
78224;SDS011;67498;53.650;10.090;2024-02-26T06:04:21;14.43;;;3.93;;
78224;SDS011;67498;53.650;10.090;2024-02-26T06:06:46;9.73;;;3.27;;
78224;SDS011;67498;53.650;10.090;2024-02-26T06:09:11;9.40;;;3.17;;
78224;SDS011;67498;53.650;10.090;2024-02-26T06:11:37;17.33;;;3.30;;
78224;SDS011;67498;53.650;10.090;2024-02-26T06:14:02;11.50;;;3.00;;
78224;SDS011;67498;53.650;10.090;2024-02-26T06:16:28;17.00;;;3.20;;
78224;SDS011;67498;53.650;10.090;2024-02-26T06:18:53;13.83;;;2.90;;
78224;SDS011;67498;53.650;10.090;2024-02-26T06:21:18;17.63;;;4.03;;
78224;SDS011;67498;53.650;10.090;2024-02-26T06:23:43;7.80;;;3.20;;
78224;SDS011;67498;53.650;10.090;2024-02-26T06:26:09;10.65;;;3.25;;
78224;SDS011;67498;53.650;10.090;2024-02-26T06:28:35;8.73;;;2.80;;
78224;SDS011;67498;53.650;10.090;2024-02-26T06:31:01;15.40;;;3.15;;
78224;SDS011;67498;53.650;10.090;2024-02-26T06:33:26;29.20;;;3.63;;
78224;SDS011;67498;53.650;10.090;2024-02-26T06:35:51;23.37;;;4.13;;
78224;SDS011;67498;53.650;10.090;2024-02-26T06:38:17;29.33;;;3.03;;
78224;SDS011;67498;53.650;10.090;2024-02-26T06:40:43;30.50;;;3.88;;
78224;SDS011;67498;53.650;10.090;2024-02-26T06:43:09;13.25;;;2.88;;
78224;SDS011;67498;53.650;10.090;2024-02-26T06:45:34;32.37;;;2.57;;
78224;SDS011;67498;53.650;10.090;2024-02-26T06:48:00;16.50;;;2.97;;
78224;SDS011;67498;53.650;10.090;2024-02-26T06:50:25;8.50;;;2.33;;
78224;SDS011;67498;53.650;10.090;2024-02-26T06:52:51;28.53;;;2.50;;
78224;SDS011;67498;53.650;10.090;2024-02-26T06:55:16;18.60;;;3.30;;
78224;SDS011;67498;53.650;10.090;2024-02-26T06:57:42;9.15;;;2.90;;
78224;SDS011;67498;53.650;10.090;2024-02-26T07:00:07;12.67;;;3.50;;
78224;SDS011;67498;53.650;10.090;2024-02-26T07:02:33;25.50;;;3.20;;
78224;SDS011;67498;53.650;10.090;2024-02-26T07:04:58;12.97;;;3.47;;
78224;SDS011;67498;53.650;10.090;2024-02-26T07:07:24;10.07;;;2.73;;
78224;SDS011;67498;53.650;10.090;2024-02-26T07:09:50;17.70;;;3.40;;
78224;SDS011;67498;53.650;10.090;2024-02-26T07:12:15;52.67;;;3.72;;
78224;SDS011;67498;53.650;10.090;2024-02-26T07:14:46;6.70;;;2.47;;
78224;SDS011;67498;53.650;10.090;2024-02-26T07:17:11;21.87;;;3.90;;
78224;SDS011;67498;53.650;10.090;2024-02-26T07:19:36;20.30;;;3.23;;
78224;SDS011;67498;53.650;10.090;2024-02-26T07:22:01;14.70;;;2.60;;
78224;SDS011;67498;53.650;10.090;2024-02-26T07:24:27;14.13;;;3.93;;
78224;SDS011;67498;53.650;10.090;2024-02-26T07:26:53;8.87;;;3.17;;
78224;SDS011;67498;53.650;10.090;2024-02-26T07:29:19;6.78;;;2.47;;
78224;SDS011;67498;53.650;10.090;2024-02-26T07:31:45;13.88;;;4.15;;
78224;SDS011;67498;53.650;10.090;2024-02-26T07:34:10;19.43;;;3.23;;
78224;SDS011;67498;53.650;10.090;2024-02-26T07:36:35;7.87;;;2.33;;
78224;SDS011;67498;53.650;10.090;2024-02-26T07:39:01;7.90;;;2.57;;
78224;SDS011;67498;53.650;10.090;2024-02-26T07:41:26;8.87;;;4.07;;
78224;SDS011;67498;53.650;10.090;2024-02-26T07:43:52;7.07;;;2.67;;
78224;SDS011;67498;53.650;10.090;2024-02-26T07:46:17;11.40;;;3.25;;
78224;SDS011;67498;53.650;10.090;2024-02-26T07:48:43;8.43;;;3.33;;
78224;SDS011;67498;53.650;10.090;2024-02-26T07:51:08;10.52;;;3.28;;
78224;SDS011;67498;53.650;10.090;2024-02-26T07:53:34;8.70;;;3.53;;
78224;SDS011;67498;53.650;10.090;2024-02-26T07:55:59;17.30;;;2.90;;
78224;SDS011;67498;53.650;10.090;2024-02-26T07:58:24;46.03;;;3.87;;
78224;SDS011;67498;53.650;10.090;2024-02-26T08:00:50;21.23;;;2.47;;
78224;SDS011;67498;53.650;10.090;2024-02-26T08:03:15;6.70;;;3.67;;
78224;SDS011;67498;53.650;10.090;2024-02-26T08:05:41;21.30;;;2.87;;
78224;SDS011;67498;53.650;10.090;2024-02-26T08:08:08;10.18;;;4.10;;
78224;SDS011;67498;53.650;10.090;2024-02-26T08:10:33;12.00;;;4.30;;
78224;SDS011;67498;53.650;10.090;2024-02-26T08:12:58;8.77;;;3.20;;
78224;SDS011;67498;53.650;10.090;2024-02-26T08:15:30;11.63;;;3.67;;
78224;SDS011;67498;53.650;10.090;2024-02-26T08:17:56;20.48;;;3.95;;
78224;SDS011;67498;53.650;10.090;2024-02-26T08:20:21;19.93;;;3.57;;
78224;SDS011;67498;53.650;10.090;2024-02-26T08:22:46;10.13;;;4.10;;
78224;SDS011;67498;53.650;10.090;2024-02-26T08:25:12;9.03;;;3.43;;
78224;SDS011;67498;53.650;10.090;2024-02-26T08:27:37;15.20;;;4.20;;
78224;SDS011;67498;53.650;10.090;2024-02-26T08:30:03;17.17;;;4.10;;
78224;SDS011;67498;53.650;10.090;2024-02-26T08:32:29;8.85;;;3.08;;
78224;SDS011;67498;53.650;10.090;2024-02-26T08:34:54;9.80;;;3.77;;
78224;SDS011;67498;53.650;10.090;2024-02-26T08:37:19;9.20;;;3.90;;
78224;SDS011;67498;53.650;10.090;2024-02-26T08:39:44;9.73;;;3.90;;
78224;SDS011;67498;53.650;10.090;2024-02-26T08:42:14;24.55;;;3.38;;
78224;SDS011;67498;53.650;10.090;2024-02-26T08:44:39;11.13;;;4.23;;
78224;SDS011;67498;53.650;10.090;2024-02-26T08:47:04;21.77;;;4.03;;
78224;SDS011;67498;53.650;10.090;2024-02-26T08:49:30;16.58;;;4.70;;
78224;SDS011;67498;53.650;10.090;2024-02-26T08:51:56;10.70;;;4.18;;
78224;SDS011;67498;53.650;10.090;2024-02-26T08:54:21;9.63;;;3.67;;
78224;SDS011;67498;53.650;10.090;2024-02-26T08:56:46;14.77;;;4.97;;
78224;SDS011;67498;53.650;10.090;2024-02-26T08:59:12;12.30;;;5.20;;
78224;SDS011;67498;53.650;10.090;2024-02-26T09:01:37;49.57;;;5.63;;
78224;SDS011;67498;53.650;10.090;2024-02-26T09:04:02;16.63;;;4.10;;
78224;SDS011;67498;53.650;10.090;2024-02-26T09:06:28;10.18;;;3.72;;
78224;SDS011;67498;53.650;10.090;2024-02-26T09:08:54;19.07;;;3.90;;
78224;SDS011;67498;53.650;10.090;2024-02-26T09:11:19;12.53;;;4.10;;
78224;SDS011;67498;53.650;10.090;2024-02-26T09:13:44;15.43;;;5.00;;
78224;SDS011;67498;53.650;10.090;2024-02-26T09:16:11;11.37;;;4.43;;
78224;SDS011;67498;53.650;10.090;2024-02-26T09:18:37;15.18;;;4.47;;
78224;SDS011;67498;53.650;10.090;2024-02-26T09:21:05;10.93;;;4.77;;
78224;SDS011;67498;53.650;10.090;2024-02-26T09:23:31;9.80;;;4.00;;
78224;SDS011;67498;53.650;10.090;2024-02-26T09:25:56;13.63;;;4.87;;
78224;SDS011;67498;53.650;10.090;2024-02-26T09:28:22;10.27;;;4.22;;
78224;SDS011;67498;53.650;10.090;2024-02-26T09:30:47;22.30;;;5.50;;
78224;SDS011;67498;53.650;10.090;2024-02-26T09:33:15;12.13;;;4.57;;
78224;SDS011;67498;53.650;10.090;2024-02-26T09:35:40;14.97;;;5.30;;
78224;SDS011;67498;53.650;10.090;2024-02-26T09:38:06;12.30;;;4.33;;
78224;SDS011;67498;53.650;10.090;2024-02-26T09:40:31;16.77;;;5.00;;
78224;SDS011;67498;53.650;10.090;2024-02-26T09:42:59;13.90;;;4.80;;
78224;SDS011;67498;53.650;10.090;2024-02-26T09:45:26;12.52;;;4.65;;
78224;SDS011;67498;53.650;10.090;2024-02-26T09:47:53;12.57;;;4.82;;
78224;SDS011;67498;53.650;10.090;2024-02-26T09:50:20;17.75;;;4.93;;
78224;SDS011;67498;53.650;10.090;2024-02-26T09:52:47;11.77;;;4.63;;
78224;SDS011;67498;53.650;10.090;2024-02-26T09:55:13;14.63;;;4.53;;
78224;SDS011;67498;53.650;10.090;2024-02-26T09:57:38;20.03;;;6.27;;
78224;SDS011;67498;53.650;10.090;2024-02-26T10:00:10;13.02;;;3.55;;
78224;SDS011;67498;53.650;10.090;2024-02-26T10:02:45;15.70;;;5.40;;
78224;SDS011;67498;53.650;10.090;2024-02-26T10:05:12;18.60;;;6.40;;
78224;SDS011;67498;53.650;10.090;2024-02-26T10:07:42;15.63;;;4.63;;
78224;SDS011;67498;53.650;10.090;2024-02-26T10:10:08;15.10;;;5.43;;
78224;SDS011;67498;53.650;10.090;2024-02-26T10:12:34;13.97;;;5.20;;
78224;SDS011;67498;53.650;10.090;2024-02-26T10:14:59;14.90;;;5.10;;
78224;SDS011;67498;53.650;10.090;2024-02-26T10:17:27;16.17;;;5.35;;
78224;SDS011;67498;53.650;10.090;2024-02-26T10:19:53;12.20;;;4.93;;
78224;SDS011;67498;53.650;10.090;2024-02-26T10:22:21;15.57;;;5.30;;
78224;SDS011;67498;53.650;10.090;2024-02-26T10:24:47;13.30;;;4.53;;
78224;SDS011;67498;53.650;10.090;2024-02-26T10:27:12;17.37;;;4.93;;
78224;SDS011;67498;53.650;10.090;2024-02-26T10:29:38;12.77;;;4.57;;
78224;SDS011;67498;53.650;10.090;2024-02-26T10:32:03;20.77;;;5.00;;
78224;SDS011;67498;53.650;10.090;2024-02-26T10:34:29;18.63;;;4.88;;
78224;SDS011;67498;53.650;10.090;2024-02-26T10:36:54;15.30;;;4.90;;
78224;SDS011;67498;53.650;10.090;2024-02-26T10:39:19;12.67;;;3.80;;
78224;SDS011;67498;53.650;10.090;2024-02-26T10:41:45;17.17;;;4.93;;
78224;SDS011;67498;53.650;10.090;2024-02-26T10:44:10;14.20;;;4.57;;
78224;SDS011;67498;53.650;10.090;2024-02-26T10:46:37;17.90;;;4.90;;
78224;SDS011;67498;53.650;10.090;2024-02-26T10:49:02;11.73;;;4.25;;
78224;SDS011;67498;53.650;10.090;2024-02-26T10:51:30;15.30;;;4.20;;
78224;SDS011;67498;53.650;10.090;2024-02-26T10:53:57;15.80;;;5.72;;
78224;SDS011;67498;53.650;10.090;2024-02-26T10:56:29;17.58;;;4.30;;
78224;SDS011;67498;53.650;10.090;2024-02-26T10:58:58;13.48;;;4.65;;
78224;SDS011;67498;53.650;10.090;2024-02-26T11:01:25;17.07;;;5.37;;
78224;SDS011;67498;53.650;10.090;2024-02-26T11:03:54;18.27;;;5.55;;
78224;SDS011;67498;53.650;10.090;2024-02-26T11:06:20;14.57;;;5.10;;
78224;SDS011;67498;53.650;10.090;2024-02-26T11:08:49;20.70;;;5.93;;
78224;SDS011;67498;53.650;10.090;2024-02-26T11:11:16;15.18;;;5.28;;
78224;SDS011;67498;53.650;10.090;2024-02-26T11:13:42;20.60;;;6.20;;
78224;SDS011;67498;53.650;10.090;2024-02-26T11:16:13;18.48;;;5.30;;
78224;SDS011;67498;53.650;10.090;2024-02-26T11:18:39;13.80;;;4.78;;
78224;SDS011;67498;53.650;10.090;2024-02-26T11:21:07;17.88;;;5.53;;
78224;SDS011;67498;53.650;10.090;2024-02-26T11:23:33;15.50;;;4.80;;
78224;SDS011;67498;53.650;10.090;2024-02-26T11:26:01;17.25;;;5.93;;
78224;SDS011;67498;53.650;10.090;2024-02-26T11:28:31;12.75;;;4.70;;
78224;SDS011;67498;53.650;10.090;2024-02-26T11:30:59;13.15;;;4.65;;
78224;SDS011;67498;53.650;10.090;2024-02-26T11:33:25;16.52;;;5.55;;
78224;SDS011;67498;53.650;10.090;2024-02-26T11:35:51;17.97;;;5.93;;
78224;SDS011;67498;53.650;10.090;2024-02-26T11:38:17;14.07;;;4.77;;
78224;SDS011;67498;53.650;10.090;2024-02-26T11:40:46;14.60;;;5.65;;
78224;SDS011;67498;53.650;10.090;2024-02-26T11:43:12;17.83;;;5.45;;
78224;SDS011;67498;53.650;10.090;2024-02-26T11:45:38;13.73;;;5.17;;
78224;SDS011;67498;53.650;10.090;2024-02-26T11:48:23;17.43;;;6.40;;
78224;SDS011;67498;53.650;10.090;2024-02-26T11:50:51;14.10;;;5.38;;
78224;SDS011;67498;53.650;10.090;2024-02-26T11:53:30;13.70;;;4.93;;
78224;SDS011;67498;53.650;10.090;2024-02-26T11:56:12;14.32;;;4.68;;
78224;SDS011;67498;53.650;10.090;2024-02-26T11:58:41;11.30;;;4.57;;
78224;SDS011;67498;53.650;10.090;2024-02-26T12:04:21;11.48;;;4.03;;
78224;SDS011;67498;53.650;10.090;2024-02-26T12:06:57;13.30;;;4.53;;
78224;SDS011;67498;53.650;10.090;2024-02-26T12:09:32;11.05;;;4.03;;
78224;SDS011;67498;53.650;10.090;2024-02-26T12:11:59;12.95;;;4.05;;
78224;SDS011;67498;53.650;10.090;2024-02-26T12:14:26;10.30;;;3.93;;
78224;SDS011;67498;53.650;10.090;2024-02-26T12:16:52;10.80;;;3.90;;
78224;SDS011;67498;53.650;10.090;2024-02-26T12:19:18;12.27;;;3.97;;
78224;SDS011;67498;53.650;10.090;2024-02-26T12:21:43;11.07;;;4.17;;
78224;SDS011;67498;53.650;10.090;2024-02-26T12:24:13;8.60;;;3.40;;
78224;SDS011;67498;53.650;10.090;2024-02-26T12:26:40;10.88;;;3.92;;
78224;SDS011;67498;53.650;10.090;2024-02-26T12:29:06;10.53;;;3.83;;
78224;SDS011;67498;53.650;10.090;2024-02-26T12:31:32;10.25;;;3.97;;
78224;SDS011;67498;53.650;10.090;2024-02-26T12:33:59;11.25;;;3.80;;
78224;SDS011;67498;53.650;10.090;2024-02-26T12:36:25;9.82;;;3.72;;
78224;SDS011;67498;53.650;10.090;2024-02-26T12:38:51;10.47;;;3.50;;
78224;SDS011;67498;53.650;10.090;2024-02-26T12:41:17;10.27;;;3.43;;
78224;SDS011;67498;53.650;10.090;2024-02-26T12:43:42;10.10;;;3.27;;
78224;SDS011;67498;53.650;10.090;2024-02-26T12:46:08;11.30;;;3.83;;
78224;SDS011;67498;53.650;10.090;2024-02-26T12:48:33;10.80;;;3.73;;
78224;SDS011;67498;53.650;10.090;2024-02-26T12:50:59;11.48;;;3.80;;
78224;SDS011;67498;53.650;10.090;2024-02-26T12:53:24;10.67;;;3.47;;
78224;SDS011;67498;53.650;10.090;2024-02-26T12:55:51;10.32;;;3.75;;
78224;SDS011;67498;53.650;10.090;2024-02-26T12:58:16;11.37;;;3.97;;
78224;SDS011;67498;53.650;10.090;2024-02-26T13:00:44;11.13;;;4.03;;
78224;SDS011;67498;53.650;10.090;2024-02-26T13:03:09;15.83;;;4.20;;
78224;SDS011;67498;53.650;10.090;2024-02-26T13:05:34;9.57;;;3.60;;
78224;SDS011;67498;53.650;10.090;2024-02-26T13:08:00;9.00;;;3.10;;
78224;SDS011;67498;53.650;10.090;2024-02-26T13:10:26;9.77;;;3.25;;
78224;SDS011;67498;53.650;10.090;2024-02-26T13:12:52;12.27;;;3.60;;
78224;SDS011;67498;53.650;10.090;2024-02-26T13:15:18;11.20;;;3.67;;
78224;SDS011;67498;53.650;10.090;2024-02-26T13:17:45;15.40;;;3.97;;
78224;SDS011;67498;53.650;10.090;2024-02-26T13:20:11;13.13;;;4.63;;
78224;SDS011;67498;53.650;10.090;2024-02-26T13:22:37;9.63;;;3.58;;
78224;SDS011;67498;53.650;10.090;2024-02-26T13:25:02;14.10;;;3.50;;
78224;SDS011;67498;53.650;10.090;2024-02-26T13:27:28;9.20;;;3.28;;
78224;SDS011;67498;53.650;10.090;2024-02-26T13:30:09;12.23;;;3.70;;
78224;SDS011;67498;53.650;10.090;2024-02-26T13:32:36;14.60;;;4.03;;
78224;SDS011;67498;53.650;10.090;2024-02-26T13:37:35;10.70;;;3.88;;
78224;SDS011;67498;53.650;10.090;2024-02-26T13:40:00;12.48;;;3.25;;
78224;SDS011;67498;53.650;10.090;2024-02-26T13:42:30;11.77;;;4.17;;
78224;SDS011;67498;53.650;10.090;2024-02-26T13:44:55;10.88;;;3.10;;
78224;SDS011;67498;53.650;10.090;2024-02-26T13:47:21;11.23;;;3.70;;
78224;SDS011;67498;53.650;10.090;2024-02-26T13:49:46;11.13;;;3.67;;
78224;SDS011;67498;53.650;10.090;2024-02-26T13:52:11;11.90;;;4.13;;
78224;SDS011;67498;53.650;10.090;2024-02-26T13:54:36;11.50;;;3.73;;
78224;SDS011;67498;53.650;10.090;2024-02-26T13:57:03;9.80;;;3.38;;
78224;SDS011;67498;53.650;10.090;2024-02-26T13:59:29;10.90;;;3.47;;
78224;SDS011;67498;53.650;10.090;2024-02-26T14:01:54;11.43;;;3.10;;
78224;SDS011;67498;53.650;10.090;2024-02-26T14:04:20;10.97;;;3.60;;
78224;SDS011;67498;53.650;10.090;2024-02-26T14:06:45;11.85;;;3.92;;
78224;SDS011;67498;53.650;10.090;2024-02-26T14:09:11;11.67;;;4.17;;
78224;SDS011;67498;53.650;10.090;2024-02-26T14:11:36;10.03;;;3.10;;
78224;SDS011;67498;53.650;10.090;2024-02-26T14:14:02;12.50;;;3.85;;
78224;SDS011;67498;53.650;10.090;2024-02-26T14:16:27;14.93;;;3.67;;
78224;SDS011;67498;53.650;10.090;2024-02-26T14:18:53;9.53;;;3.27;;
78224;SDS011;67498;53.650;10.090;2024-02-26T14:21:18;10.00;;;3.67;;
78224;SDS011;67498;53.650;10.090;2024-02-26T14:23:43;12.47;;;4.30;;